createdAt,value
2023-03-06T00:03:38.100Z,0.76
2023-03-06T00:08:40.705Z,0.75
2023-03-06T00:13:46.241Z,0.68
2023-03-06T00:18:48.233Z,0.60
2023-03-06T00:23:50.023Z,0.48
2023-03-06T00:28:51.782Z,0.40
2023-03-06T00:33:53.617Z,0.36
2023-03-06T00:38:55.499Z,0.34
2023-03-06T00:44:00.789Z,0.31
2023-03-06T00:49:04.327Z,0.25
2023-03-06T00:54:26.390Z,0.23
2023-03-06T00:59:28.150Z,0.26
2023-03-06T01:04:30.176Z,0.26
2023-03-06T01:09:31.941Z,0.24
2023-03-06T01:14:33.680Z,0.21
2023-03-06T01:19:35.681Z,0.23
2023-03-06T01:24:37.387Z,0.24
2023-03-06T01:29:39.131Z,0.22
2023-03-06T01:34:40.971Z,0.22
2023-03-06T01:39:42.956Z,0.24
2023-03-06T01:45:15.052Z,0.26
2023-03-06T01:50:16.832Z,0.26
2023-03-06T01:55:39.197Z,0.24
2023-03-06T02:00:41.083Z,0.27
2023-03-06T02:05:44.300Z,0.28
2023-03-06T02:11:07.893Z,0.28
2023-03-06T02:16:11.523Z,0.31
2023-03-06T02:21:22.942Z,0.33
2023-03-06T02:26:27.047Z,0.33
2023-03-06T02:31:32.555Z,0.33
2023-03-06T02:36:40.789Z,0.35
2023-03-06T02:41:43.055Z,0.38
2023-03-06T02:46:44.837Z,0.38
2023-03-06T02:51:46.750Z,0.39
2023-03-06T02:56:48.510Z,0.38
2023-03-06T03:01:50.259Z,0.37
2023-03-06T03:06:52.235Z,0.29
2023-03-06T03:11:54.838Z,0.23
2023-03-06T03:16:56.892Z,0.23
2023-03-06T03:22:01.225Z,0.07
2023-03-06T03:27:03.311Z,-0.11
2023-03-06T03:32:06.102Z,-0.25
2023-03-06T03:37:08.007Z,-0.35
2023-03-06T03:42:09.731Z,-0.37
2023-03-06T03:47:11.655Z,-0.38
2023-03-06T03:52:13.536Z,-0.41
2023-03-06T03:57:15.638Z,-0.43
2023-03-06T04:02:24.142Z,-0.42
2023-03-06T04:07:32.726Z,-0.39
2023-03-06T04:12:36.147Z,-0.33
2023-03-06T04:17:38.138Z,-0.33
2023-03-06T04:22:41.345Z,-0.37
2023-03-06T04:27:45.148Z,-0.41
2023-03-06T04:32:46.910Z,-0.43
2023-03-06T04:37:48.969Z,-0.45
2023-03-06T04:42:50.877Z,-0.45
2023-03-06T04:47:53.477Z,-0.42
2023-03-06T04:52:55.268Z,-0.36
2023-03-06T04:57:57.960Z,-0.32
2023-03-06T05:03:00.892Z,-0.32
2023-03-06T05:08:02.584Z,-0.32
2023-03-06T05:13:05.393Z,-0.30
2023-03-06T05:18:07.119Z,-0.32
2023-03-06T05:23:08.962Z,-0.35
2023-03-06T05:28:10.606Z,-0.35
2023-03-06T05:33:12.397Z,-0.35
2023-03-06T05:38:15.671Z,-0.30
2023-03-06T05:43:17.661Z,-0.21
2023-03-06T05:48:19.283Z,-0.12
2023-03-06T05:53:20.916Z,-0.01
2023-03-06T05:58:22.812Z,0.11
2023-03-06T06:03:25.081Z,0.22
2023-03-06T06:08:26.730Z,0.34
2023-03-06T06:13:28.441Z,0.46
2023-03-06T06:18:30.094Z,0.59
2023-03-06T06:23:31.799Z,0.74
2023-03-06T06:28:34.425Z,0.87
2023-03-06T06:33:37.290Z,0.99
2023-03-06T06:38:39.010Z,1.08
2023-03-06T06:43:40.851Z,1.17
2023-03-06T06:48:42.613Z,1.25
2023-03-06T06:53:44.806Z,1.38
2023-03-06T06:58:46.611Z,1.52
2023-03-06T07:03:48.705Z,1.70
2023-03-06T07:08:50.438Z,1.83
2023-03-06T07:13:52.267Z,1.92
2023-03-06T07:18:53.990Z,2.02
2023-03-06T07:23:57.644Z,2.14
2023-03-06T07:28:59.422Z,2.27
2023-03-06T07:34:03.157Z,2.46
2023-03-06T07:39:09.802Z,2.67
2023-03-06T07:44:11.507Z,2.85
2023-03-06T07:49:13.585Z,3.01
2023-03-06T07:54:15.359Z,3.13
2023-03-06T07:59:17.272Z,3.21
2023-03-06T08:04:19.194Z,3.30
2023-03-06T08:09:20.882Z,3.40
2023-03-06T08:14:23.155Z,3.56
2023-03-06T08:19:24.903Z,3.78
2023-03-06T08:24:26.644Z,4.19
2023-03-06T08:29:28.401Z,4.72
2023-03-06T08:34:30.254Z,5.13
2023-03-06T08:39:32.008Z,5.22
2023-03-06T08:44:34.367Z,5.27
2023-03-06T08:49:38.360Z,5.36
2023-03-06T08:54:40.074Z,5.57
2023-03-06T08:59:42.415Z,5.70
2023-03-06T09:04:44.203Z,5.81
2023-03-06T09:09:45.912Z,5.91
2023-03-06T09:14:47.613Z,6.04
2023-03-06T09:19:50.603Z,6.13
2023-03-06T09:24:52.523Z,6.20
2023-03-06T09:29:55.174Z,6.40
2023-03-06T09:34:56.962Z,6.75
2023-03-06T09:39:58.701Z,7.09
2023-03-06T09:45:02.397Z,7.38
2023-03-06T09:50:27.133Z,7.48
2023-03-06T09:55:40.386Z,7.51
2023-03-06T10:01:03.524Z,7.61
2023-03-06T10:06:16.305Z,7.79
2023-03-06T10:11:31.297Z,7.87
2023-03-06T10:16:33.404Z,8.09
2023-03-06T10:21:50.121Z,8.42
2023-03-06T10:27:03.957Z,8.59
2023-03-06T10:32:39.510Z,8.67
2023-03-06T10:37:48.690Z,8.92
2023-03-06T10:43:01.624Z,9.06
2023-03-06T10:48:12.061Z,8.95
2023-03-06T10:53:31.327Z,8.68
2023-03-06T10:58:33.409Z,8.55
2023-03-06T11:03:36.949Z,8.54
2023-03-06T11:08:40.433Z,8.46
2023-03-06T11:13:44.188Z,8.32
2023-03-06T11:19:01.338Z,8.25
2023-03-06T11:24:10.587Z,8.16
2023-03-06T11:29:24.814Z,8.08
2023-03-06T11:34:57.663Z,8.05
2023-03-06T11:40:15.180Z,8.11
2023-03-06T11:45:37.277Z,8.23
2023-03-06T11:51:06.107Z,8.33
2023-03-06T11:56:42.057Z,8.32
2023-03-06T12:01:47.073Z,8.43
2023-03-06T12:07:06.585Z,8.57
2023-03-06T12:12:34.252Z,8.71
2023-03-06T12:18:14.116Z,8.77
2023-03-06T12:23:37.526Z,8.75
2023-03-06T12:29:17.935Z,8.72
2023-03-06T12:34:49.556Z,8.50
2023-03-06T12:39:54.163Z,8.27
2023-03-06T12:45:14.781Z,8.27
2023-03-06T12:50:24.915Z,8.43
2023-03-06T12:55:27.157Z,8.59
2023-03-06T13:00:34.632Z,8.72
2023-03-06T13:06:00.874Z,8.53
2023-03-06T13:11:28.860Z,8.23
2023-03-06T13:16:33.160Z,7.94
2023-03-06T13:21:46.828Z,7.73
2023-03-06T13:26:50.147Z,7.58
2023-03-06T13:31:54.723Z,7.42
2023-03-06T13:37:28.048Z,7.17
2023-03-06T13:42:32.589Z,6.93
2023-03-06T13:48:09.630Z,6.82
2023-03-06T13:53:28.221Z,6.69
2023-03-06T13:58:52.993Z,6.38
2023-03-06T14:04:25.827Z,5.83
2023-03-06T14:09:56.930Z,5.13
2023-03-06T14:15:20.199Z,4.58
2023-03-06T14:20:32.056Z,4.33
2023-03-06T14:25:34.611Z,4.31
2023-03-06T14:30:36.382Z,4.37
2023-03-06T14:35:38.250Z,4.42
2023-03-06T14:40:45.008Z,4.51
2023-03-06T14:46:01.905Z,4.52
2023-03-06T14:51:04.147Z,4.58
2023-03-06T14:56:07.318Z,4.61
2023-03-06T15:01:10.850Z,4.61
2023-03-06T15:06:20.965Z,4.61
2023-03-06T15:11:22.713Z,4.57
2023-03-06T15:16:30.043Z,4.55
2023-03-06T15:21:37.583Z,4.52
2023-03-06T15:26:40.553Z,4.43
2023-03-06T15:31:43.614Z,4.37
2023-03-06T15:36:56.762Z,4.31
2023-03-06T15:42:14.955Z,4.21
2023-03-06T15:47:17.190Z,4.14
2023-03-06T15:52:23.135Z,4.06
2023-03-06T15:57:29.309Z,3.97
2023-03-06T16:02:31.144Z,3.93
2023-03-06T16:07:32.823Z,3.93
2023-03-06T16:12:34.921Z,3.91
2023-03-06T16:17:36.604Z,3.87
2023-03-06T16:22:38.261Z,3.82
2023-03-06T16:28:00.869Z,3.74
2023-03-06T16:33:03.593Z,3.68
2023-03-06T16:38:05.526Z,3.68
2023-03-06T16:43:09.134Z,3.67
2023-03-06T16:48:15.543Z,3.63
2023-03-06T16:53:17.403Z,3.57
2023-03-06T16:58:19.124Z,3.51
2023-03-06T17:03:21.005Z,3.46
2023-03-06T17:08:22.765Z,3.46
2023-03-06T17:13:24.811Z,3.48
2023-03-06T17:18:28.092Z,3.49
2023-03-06T17:23:30.433Z,3.49
2023-03-06T17:28:32.376Z,3.46
2023-03-06T17:33:34.165Z,3.48
2023-03-06T17:38:35.904Z,3.52
2023-03-06T17:43:38.641Z,3.52
2023-03-06T17:48:40.875Z,3.51
2023-03-06T17:53:42.712Z,3.51
2023-03-06T17:58:45.084Z,3.55
2023-03-06T18:03:49.979Z,3.63
2023-03-06T18:08:53.044Z,3.68
2023-03-06T18:13:54.986Z,3.67
2023-03-06T18:18:56.817Z,3.64
2023-03-06T18:23:58.639Z,3.59
2023-03-06T18:29:04.418Z,3.56
2023-03-06T18:34:17.826Z,3.53
2023-03-06T18:39:21.389Z,3.59
2023-03-06T18:44:23.361Z,3.56
2023-03-06T18:49:25.073Z,3.54
2023-03-06T18:54:28.649Z,3.50
2023-03-06T18:59:30.385Z,3.47
2023-03-06T19:04:32.368Z,3.49
2023-03-06T19:09:34.128Z,3.49
2023-03-06T19:14:36.658Z,3.47
2023-03-06T19:19:38.399Z,3.44
2023-03-06T19:24:40.093Z,3.44
2023-03-06T19:29:42.345Z,3.43
2023-03-06T19:34:44.043Z,3.37
2023-03-06T19:39:45.764Z,3.31
2023-03-06T19:44:47.383Z,3.25
2023-03-06T19:49:49.050Z,3.22
2023-03-06T19:54:52.064Z,3.16
2023-03-06T19:59:53.760Z,3.09
2023-03-06T20:04:55.493Z,3.06
2023-03-06T20:10:00.702Z,3.04
2023-03-06T20:15:02.675Z,2.97
2023-03-06T20:20:04.776Z,2.87
2023-03-06T20:25:06.648Z,2.80
2023-03-06T20:30:09.271Z,2.74
2023-03-06T20:35:11.057Z,2.65
2023-03-06T20:40:13.031Z,2.61
2023-03-06T20:45:15.528Z,2.56
2023-03-06T20:50:17.354Z,2.50
2023-03-06T20:55:19.007Z,2.44
2023-03-06T21:00:21.133Z,2.44
2023-03-06T21:05:23.193Z,2.46
2023-03-06T21:10:25.245Z,2.42
2023-03-06T21:15:29.945Z,2.29
2023-03-06T21:20:33.417Z,2.16
2023-03-06T21:25:35.802Z,2.07
2023-03-06T21:30:37.566Z,1.97
2023-03-06T21:35:41.192Z,1.86
2023-03-06T21:40:43.119Z,1.74
2023-03-06T21:45:46.880Z,1.67
2023-03-06T21:50:48.559Z,1.66
2023-03-06T21:55:50.186Z,1.66
2023-03-06T22:00:51.999Z,1.67
2023-03-06T22:05:54.722Z,1.72
2023-03-06T22:10:57.389Z,1.75
2023-03-06T22:16:02.553Z,1.78
2023-03-06T22:21:12.476Z,1.85
2023-03-06T22:26:15.467Z,1.90
2023-03-06T22:31:26.374Z,1.92
2023-03-06T22:36:30.636Z,2.01
2023-03-06T22:41:34.958Z,2.10
2023-03-06T22:46:57.783Z,2.21
2023-03-06T22:52:19.729Z,2.27
2023-03-06T22:57:21.587Z,2.30
2023-03-06T23:02:23.549Z,2.31
2023-03-06T23:07:25.523Z,2.33
2023-03-06T23:12:36.631Z,2.37
2023-03-06T23:17:56.890Z,2.43
2023-03-06T23:23:17.597Z,2.45
2023-03-06T23:28:19.318Z,2.41
2023-03-06T23:33:21.009Z,2.38
2023-03-06T23:38:22.782Z,2.40
2023-03-06T23:43:24.523Z,2.44
2023-03-06T23:48:27.363Z,2.42
2023-03-06T23:53:29.056Z,2.39
2023-03-06T23:58:32.840Z,2.36
